Startpagina
METAR-TAF:

METAR-TAF

Vliegvelden :

Militair vliegvled

Tulln an der Donau, Oostenrijk

breedte: 48-19N, lengte: 016-07E, hoogte: 175 m

METAR: ontbreekt

Tijdstip: 00:46 (22:46 UTC)

Verwachting

Dit bericht is 11 uur en het 31 minuten geleden gemaakt, om 11:15 UTC
Verwachting geldig van 23 om 12 UTC tot 23 om 21 UTC
Wind 10 kt uit het zuidoosten
Zicht 10 km of meer
Weinig wolken op 3000 ft
Verspreide wolken op 30000 ft
Tijdelijke
van 23 om 12 UTC tot 23 om 17 UTC
Wind 15 kt uit het zuidoosten met uitschieters tot 25 kt
Weinig wolken op 4500 ft, Cumulonimbus.
Verspreide wolken op 4500 ft

TAF: LOXT 231115Z 2312/2321 13010KT 9999 FEW030 SCT300 TEMPO 2312/2317 14015G25KT FEW045CB SCT045

Waarnemingen en weersverwachtingen van meer dan 4000 vliegvelden (METAR en TAF).

De beschikbare stations zijn de gele en rode punten op de kaart.

Ga met uw muis naar het station om de naam te zien.

Klik dan om waarnemingen en weersverwachtingen te zien.

kaart wijzigen: klik op de groene knoppen met een zwart kruis om in te zoomen, op de groene knop met een streepje om uit te zoomen of op de groene pijlen voor aangrenzende kaarten.


METAR-TAF: